Hypoluxo, Florida
Current Conditions -  °F | °C
As of 7:53 AM on Wednesday 22 Oct 2014 (Local Time) from KPBI Reporting Station
Broken Clouds Broken Clouds  
Wind Chill: 70°   Ceiling: 20000
Heat Index: 70°   Visibility: 10mi
Dew Point: 70°   Wind: 3mph
Humidity: 100%   Direction: 340°NNW
Pressure: 29.94"   Gusts: NA
Location:  26.5758°N, 80.0835°W
Report Text: KPBI 221153Z 34003KT 10SM FEW020 SCT110 BKN200 21/21 A2994 RMK AO2 SLP139 CB DSNT E-SE 70264 T02110211 10217 20206 51013
Loading
Personal Weather Stations






























Interactive Weather Map
Tropical Storm Tracking
New forecast layout! Learn more

10-Day Weather Forecast

Advertisements
Track Severe Weather on mobile